Time;durP1;ratioP1;P1;durP2;ratioP2;P2;SDS_P1;SDS_P2;PMS_P1;PMS_P2;Temp;Humidity;BMP_temperature;BMP_pressure;BME280_temperature;BME280_humidity;BME280_pressure;Samples;Min_cycle;Max_cycle;Signal;HPM_P1;HPM_P2
2022/02/15 00:00:39;;;;;;;14.45;5.75;;;7.30;87.70;;;;;;4940355;28;20043;-75
2022/02/15 00:03:08;;;;;;;14.75;6.30;;;7.30;87.70;;;;;;4943269;28;20042;-75
2022/02/15 00:05:34;;;;;;;15.75;5.68;;;7.30;87.60;;;;;;4954212;28;20035;-77
2022/02/15 00:08:01;;;;;;;19.23;6.25;;;7.30;87.50;;;;;;4947438;28;20561;-76
2022/02/15 00:10:26;;;;;;;15.82;6.70;;;7.30;87.40;;;;;;4950456;28;20456;-77
2022/02/15 00:12:52;;;;;;;13.38;5.97;;;7.30;87.40;;;;;;4940362;28;20444;-75
2022/02/15 00:15:18;;;;;;;15.90;6.63;;;7.30;87.30;;;;;;4942787;28;20519;-76
2022/02/15 00:17:43;;;;;;;12.38;6.10;;;7.30;87.50;;;;;;4938394;28;20074;-75
2022/02/15 00:20:11;;;;;;;14.63;6.10;;;7.30;87.40;;;;;;4942297;28;20027;-74
2022/02/15 00:22:37;;;;;;;13.55;6.38;;;7.30;87.30;;;;;;4943679;28;20129;-75
2022/02/15 00:25:03;;;;;;;13.65;6.15;;;7.20;87.40;;;;;;4939326;28;20215;-73
2022/02/15 00:27:29;;;;;;;12.55;5.78;;;7.20;87.40;;;;;;4939215;28;20479;-73
2022/02/15 00:29:55;;;;;;;16.98;7.10;;;7.20;87.40;;;;;;4941912;28;20763;-74
2022/02/15 00:32:20;;;;;;;12.82;6.53;;;7.20;87.40;;;;;;4939331;28;20177;-77
2022/02/15 00:34:46;;;;;;;12.05;6.00;;;7.20;87.40;;;;;;4944693;28;20074;-76
2022/02/15 00:37:12;;;;;;;15.27;6.20;;;7.30;87.20;;;;;;4938859;28;20134;-78
2022/02/15 00:39:37;;;;;;;14.15;6.97;;;7.30;87.20;;;;;;4918357;28;20093;-76
2022/02/15 00:42:03;;;;;;;11.27;6.05;;;7.30;87.10;;;;;;4940673;28;20114;-74
2022/02/15 00:44:31;;;;;;;16.33;7.85;;;7.20;87.00;;;;;;4940349;28;20078;-75
2022/02/15 00:46:58;;;;;;;13.88;6.32;;;7.20;87.10;;;;;;4938825;28;20507;-74
2022/02/15 00:49:24;;;;;;;17.33;6.43;;;7.20;87.10;;;;;;4937019;28;20142;-77
2022/02/15 00:51:49;;;;;;;16.30;6.78;;;7.20;87.00;;;;;;4937565;28;20035;-74
2022/02/15 00:54:15;;;;;;;15.73;6.50;;;7.20;87.20;;;;;;4924131;28;20680;-75
2022/02/15 00:56:41;;;;;;;13.00;7.10;;;7.20;87.10;;;;;;4944066;28;20062;-75
2022/02/15 00:59:09;;;;;;;14.43;7.15;;;7.20;87.00;;;;;;4944555;28;20043;-76
2022/02/15 01:01:36;;;;;;;14.02;7.13;;;7.20;87.10;;;;;;4939089;28;20566;-74
2022/02/15 01:04:01;;;;;;;13.27;6.63;;;7.10;87.00;;;;;;4937357;28;20035;-75
2022/02/15 01:06:27;;;;;;;14.85;6.88;;;7.20;87.00;;;;;;4941283;28;20493;-73
2022/02/15 01:08:53;;;;;;;15.65;7.13;;;7.10;86.80;;;;;;4939471;28;20476;-72
2022/02/15 01:11:18;;;;;;;14.02;7.20;;;7.20;86.90;;;;;;4940550;28;20499;-76
2022/02/15 01:13:44;;;;;;;13.15;8.07;;;7.20;86.70;;;;;;4937596;28;20546;-76
2022/02/15 01:16:11;;;;;;;14.23;9.05;;;7.10;86.80;;;;;;4934793;28;20046;-75
2022/02/15 01:18:36;;;;;;;13.52;7.80;;;7.10;86.90;;;;;;4941099;28;20472;-74
2022/02/15 01:21:02;;;;;;;13.20;7.82;;;7.10;86.90;;;;;;4947156;28;20050;-73
2022/02/15 01:23:28;;;;;;;18.65;9.32;;;7.10;87.00;;;;;;4941086;28;20566;-73
2022/02/15 01:25:54;;;;;;;14.52;8.48;;;7.10;86.90;;;;;;4947897;28;20046;-75
2022/02/15 01:28:19;;;;;;;15.52;8.77;;;7.10;86.90;;;;;;4944586;28;20047;-76
2022/02/15 01:30:45;;;;;;;16.92;8.10;;;7.10;86.90;;;;;;4946681;28;20039;-75
2022/02/15 01:33:11;;;;;;;15.82;8.15;;;7.10;86.60;;;;;;4943712;28;20039;-73
2022/02/15 01:35:37;;;;;;;15.88;8.15;;;7.10;86.60;;;;;;4950266;28;20073;-74
2022/02/15 01:38:03;;;;;;;17.50;7.22;;;7.10;86.70;;;;;;4949163;28;20423;-75
2022/02/15 01:40:29;;;;;;;12.25;7.05;;;7.20;86.20;;;;;;4943484;28;20511;-72
2022/02/15 01:42:55;;;;;;;16.45;6.00;;;7.20;86.20;;;;;;4942750;28;20031;-76
2022/02/15 01:45:21;;;;;;;14.27;5.40;;;7.20;86.20;;;;;;4944142;28;20082;-73
2022/02/15 01:47:47;;;;;;;12.95;5.20;;;7.10;86.20;;;;;;4946475;28;20065;-73
2022/02/15 01:50:14;;;;;;;12.60;5.32;;;7.10;86.10;;;;;;4946789;28;20042;-72
2022/02/15 01:52:41;;;;;;;9.13;4.85;;;7.10;86.00;;;;;;4962523;28;20047;-76
2022/02/15 01:55:09;;;;;;;11.27;5.20;;;7.10;86.10;;;;;;4939715;28;20211;-77
2022/02/15 01:57:35;;;;;;;13.77;4.82;;;7.10;86.10;;;;;;4942740;28;20039;-74
2022/02/15 02:00:04;;;;;;;10.98;4.72;;;7.10;86.00;;;;;;4943282;28;20365;-73
2022/02/15 02:02:30;;;;;;;13.55;5.00;;;7.10;85.80;;;;;;4944708;28;20100;-74
2022/02/15 02:07:41;;;;;;;15.13;5.60;;;7.10;85.70;;;;;;4938992;28;20058;-78
2022/02/15 02:10:07;;;;;;;11.75;5.03;;;7.00;85.80;;;;;;4941736;28;20077;-77
2022/02/15 02:12:33;;;;;;;14.45;5.53;;;7.00;85.90;;;;;;4949024;28;20756;-75
2022/02/15 02:15:16;;;;;;;13.90;6.20;;;7.10;85.80;;;;;;4938807;28;20059;-75
2022/02/15 02:17:41;;;;;;;11.38;6.05;;;7.10;85.80;;;;;;4943933;28;20131;-75
2022/02/15 02:20:08;;;;;;;14.30;6.88;;;7.10;85.80;;;;;;4944847;28;20450;-74
2022/02/15 02:22:33;;;;;;;14.40;6.25;;;7.10;85.80;;;;;;4941826;28;20582;-75
2022/02/15 02:24:59;;;;;;;13.05;6.03;;;7.10;85.90;;;;;;4942187;28;20101;-73
2022/02/15 02:27:30;;;;;;;17.10;6.10;;;7.10;85.90;;;;;;4926708;28;20097;-73
2022/02/15 02:29:57;;;;;;;11.98;5.28;;;7.10;85.80;;;;;;4944209;28;20053;-75
2022/02/15 02:32:31;;;;;;;13.82;5.90;;;7.10;85.70;;;;;;4928524;28;20039;-75
2022/02/15 02:34:57;;;;;;;12.75;6.10;;;7.20;85.70;;;;;;4942514;28;20061;-76
2022/02/15 02:37:23;;;;;;;11.80;6.32;;;7.10;85.70;;;;;;4943587;28;20039;-76
2022/02/15 02:39:51;;;;;;;15.93;5.93;;;7.10;85.60;;;;;;4940769;28;20047;-75
2022/02/15 02:42:19;;;;;;;10.88;5.95;;;7.10;85.50;;;;;;4943688;28;20495;-75
2022/02/15 02:44:45;;;;;;;10.95;6.40;;;7.10;85.30;;;;;;4941345;28;20139;-75
2022/02/15 02:47:12;;;;;;;12.40;7.13;;;7.00;85.60;;;;;;4942118;28;20486;-73
2022/02/15 02:49:37;;;;;;;15.43;6.50;;;7.00;85.80;;;;;;4945215;28;20562;-73
2022/02/15 02:52:04;;;;;;;13.23;5.93;;;7.00;85.90;;;;;;4940943;28;20042;-72
2022/02/15 02:54:30;;;;;;;12.05;5.50;;;7.00;86.00;;;;;;4941138;28;20035;-76
2022/02/15 02:56:56;;;;;;;11.43;6.38;;;6.90;85.90;;;;;;4944589;28;20038;-75
2022/02/15 02:59:23;;;;;;;15.88;7.43;;;7.00;85.90;;;;;;4941841;28;20035;-74
2022/02/15 03:01:48;;;;;;;18.23;7.15;;;7.00;85.80;;;;;;4944151;28;20046;-75
2022/02/15 03:04:15;;;;;;;14.63;7.45;;;7.10;85.70;;;;;;4943368;28;20038;-75
2022/02/15 03:06:41;;;;;;;16.75;8.32;;;7.00;85.70;;;;;;4942854;28;20066;-77
2022/02/15 03:09:07;;;;;;;14.20;9.00;;;7.10;85.70;;;;;;4943620;28;20039;-73
2022/02/15 03:11:33;;;;;;;15.60;8.50;;;7.00;85.50;;;;;;4938975;28;20043;-78
2022/02/15 03:13:59;;;;;;;15.73;7.57;;;7.10;85.40;;;;;;4943468;28;20035;-73
2022/02/15 03:16:26;;;;;;;16.08;7.32;;;7.00;85.40;;;;;;4924486;28;20061;-75
2022/02/15 03:18:52;;;;;;;19.05;7.22;;;7.00;85.40;;;;;;4945436;28;20054;-74
2022/02/15 03:21:17;;;;;;;13.90;6.78;;;7.00;85.40;;;;;;4939617;28;20198;-74
2022/02/15 03:23:44;;;;;;;13.43;6.95;;;7.00;85.20;;;;;;4947201;28;20047;-77
2022/02/15 03:26:10;;;;;;;14.27;7.53;;;7.10;85.30;;;;;;4961352;28;20043;-73
2022/02/15 03:28:36;;;;;;;13.10;6.25;;;7.10;84.90;;;;;;4953803;28;20066;-72
2022/02/15 03:31:02;;;;;;;9.95;5.22;;;7.10;84.50;;;;;;4941887;28;20402;-78
2022/02/15 03:33:28;;;;;;;14.70;5.45;;;7.10;84.50;;;;;;4940227;28;20039;-73
2022/02/15 03:35:53;;;;;;;16.45;5.30;;;7.10;84.50;;;;;;4945383;28;20043;-75
2022/02/15 03:38:19;;;;;;;16.17;5.78;;;7.10;84.60;;;;;;4944335;28;20055;-74
2022/02/15 03:43:29;;;;;;;13.00;5.75;;;7.10;84.50;;;;;;4951432;28;20386;-73
2022/02/15 03:45:55;;;;;;;9.77;5.05;;;7.00;84.60;;;;;;4943602;28;20494;-76
2022/02/15 03:48:20;;;;;;;11.40;5.28;;;7.00;84.50;;;;;;4947920;28;20140;-76
2022/02/15 03:50:46;;;;;;;13.55;4.60;;;6.90;84.30;;;;;;4918185;28;20039;-73
2022/02/15 03:53:12;;;;;;;13.05;4.15;;;6.90;84.20;;;;;;4939640;28;20070;-74
2022/02/15 03:55:38;;;;;;;9.10;4.15;;;7.00;84.10;;;;;;4936858;28;20218;-73
2022/02/15 03:58:05;;;;;;;12.15;5.03;;;7.00;84.20;;;;;;4941906;28;20403;-75
2022/02/15 04:00:30;;;;;;;13.07;5.45;;;7.10;84.40;;;;;;4951881;28;20039;-72
2022/02/15 04:02:56;;;;;;;12.52;5.47;;;7.00;84.70;;;;;;4956304;28;20069;-74
2022/02/15 04:05:22;;;;;;;14.52;5.88;;;7.00;84.80;;;;;;4938322;28;20069;-75
2022/02/15 04:07:48;;;;;;;13.25;6.05;;;6.90;85.00;;;;;;4950049;28;20038;-75
2022/02/15 04:10:14;;;;;;;11.50;5.82;;;6.80;85.30;;;;;;4950187;28;20101;-76
2022/02/15 04:12:40;;;;;;;12.75;5.78;;;6.80;85.50;;;;;;4945794;28;20042;-73
2022/02/15 04:15:06;;;;;;;14.35;5.90;;;6.80;85.60;;;;;;4939134;28;20058;-74
2022/02/15 04:17:32;;;;;;;10.88;4.68;;;6.80;85.70;;;;;;4948388;28;20045;-77
2022/02/15 04:19:58;;;;;;;12.45;5.43;;;6.80;85.70;;;;;;4949093;28;20428;-75
2022/02/15 04:22:23;;;;;;;11.95;5.55;;;6.80;85.80;;;;;;4953876;28;20054;-76
2022/02/15 04:24:49;;;;;;;15.15;5.43;;;6.70;85.70;;;;;;4950217;28;20039;-77
2022/02/15 04:27:15;;;;;;;14.65;5.78;;;6.70;85.70;;;;;;4926375;28;20039;-74
2022/02/15 04:29:42;;;;;;;13.23;5.55;;;6.70;85.80;;;;;;4947449;28;20038;-74
2022/02/15 04:32:08;;;;;;;10.00;4.05;;;6.70;85.60;;;;;;4927034;28;21413;-77
2022/02/15 04:34:34;;;;;;;13.23;4.43;;;6.70;85.60;;;;;;4947360;28;20031;-77
2022/02/15 04:37:00;;;;;;;12.23;4.05;;;6.70;85.30;;;;;;4942130;28;20070;-73
2022/02/15 04:39:26;;;;;;;13.90;4.80;;;6.60;85.40;;;;;;4948597;28;20977;-74
2022/02/15 04:41:52;;;;;;;10.75;4.40;;;6.60;85.40;;;;;;4948384;28;20563;-75
2022/02/15 04:44:17;;;;;;;12.95;4.50;;;6.60;85.40;;;;;;4950193;28;20388;-78
2022/02/15 04:46:43;;;;;;;11.25;5.20;;;6.50;85.40;;;;;;4943585;28;20491;-78
2022/02/15 04:49:09;;;;;;;13.63;5.28;;;6.50;85.40;;;;;;4940219;28;20045;-74
2022/02/15 04:51:35;;;;;;;11.27;5.65;;;6.50;85.40;;;;;;4938971;28;20054;-75
2022/02/15 04:54:00;;;;;;;11.95;6.10;;;6.40;85.30;;;;;;4942257;28;20034;-73
2022/02/15 04:56:26;;;;;;;10.68;5.35;;;6.40;85.50;;;;;;4944815;28;20042;-75
2022/02/15 04:58:51;;;;;;;13.02;5.07;;;6.40;85.50;;;;;;4947304;28;20043;-77
2022/02/15 05:01:18;;;;;;;11.68;5.32;;;6.40;85.60;;;;;;4945249;28;20086;-75
2022/02/15 05:03:44;;;;;;;16.23;5.50;;;6.30;85.50;;;;;;4945173;28;20502;-77
2022/02/15 05:06:10;;;;;;;11.93;6.72;;;6.40;85.50;;;;;;4944862;28;20039;-78
2022/02/15 05:08:35;;;;;;;11.65;7.30;;;6.30;85.40;;;;;;4944781;28;20311;-78
2022/02/15 05:11:01;;;;;;;14.68;7.55;;;6.30;85.60;;;;;;4954043;28;20490;-75
2022/02/15 05:13:27;;;;;;;14.85;6.07;;;6.30;85.60;;;;;;4947472;28;20478;-75
2022/02/15 05:15:52;;;;;;;12.20;5.20;;;6.30;85.40;;;;;;4940296;28;20396;-77
2022/02/15 05:18:18;;;;;;;11.80;5.20;;;6.30;85.50;;;;;;4942707;28;20122;-74
2022/02/15 05:20:44;;;;;;;12.20;5.60;;;6.20;85.50;;;;;;4950538;28;20054;-79
2022/02/15 05:23:09;;;;;;;11.00;5.15;;;6.20;85.20;;;;;;4939517;28;20055;-76
2022/02/15 05:25:35;;;;;;;10.18;4.95;;;6.30;85.10;;;;;;4940320;28;20470;-75
2022/02/15 05:28:01;;;;;;;13.18;4.15;;;6.20;85.10;;;;;;4944806;28;20305;-79
2022/02/15 05:30:28;;;;;;;9.80;4.00;;;6.20;85.10;;;;;;4943131;28;20458;-74
2022/02/15 05:32:54;;;;;;;11.02;4.22;;;6.20;85.20;;;;;;4942790;28;20035;-76
2022/02/15 05:35:20;;;;;;;12.93;4.20;;;6.20;85.10;;;;;;4941506;28;20070;-74
2022/02/15 05:37:46;;;;;;;12.77;4.25;;;6.10;85.10;;;;;;4942893;28;20212;-74
2022/02/15 05:40:13;;;;;;;13.00;4.50;;;6.10;85.00;;;;;;4942835;28;20541;-77
2022/02/15 05:42:40;;;;;;;10.55;4.43;;;6.00;85.10;;;;;;4941050;28;20077;-73
2022/02/15 05:45:06;;;;;;;10.90;4.10;;;6.00;85.30;;;;;;4941146;28;20655;-74
2022/02/15 05:47:32;;;;;;;11.32;4.13;;;5.90;85.40;;;;;;4941108;28;20046;-75
2022/02/15 05:52:42;;;;;;;13.90;4.45;;;5.70;85.60;;;;;;4961312;28;20116;-76
2022/02/15 05:55:08;;;;;;;13.13;5.22;;;5.70;85.80;;;;;;4949287;28;20468;-76
2022/02/15 05:57:34;;;;;;;12.30;4.78;;;5.60;85.90;;;;;;4925405;28;20130;-76
2022/02/15 06:00:01;;;;;;;11.50;4.43;;;5.60;86.00;;;;;;4953644;28;20414;-75
2022/02/15 06:02:27;;;;;;;13.77;5.38;;;5.50;86.20;;;;;;4946196;28;20400;-76
2022/02/15 06:04:52;;;;;;;12.77;4.88;;;5.50;86.20;;;;;;4936090;28;20153;-77
2022/02/15 06:07:18;;;;;;;11.18;4.63;;;5.50;86.20;;;;;;4939294;28;20462;-74
2022/02/15 06:09:44;;;;;;;11.85;4.45;;;5.40;86.10;;;;;;4938059;28;20376;-77
2022/02/15 06:12:10;;;;;;;9.63;3.67;;;5.30;86.10;;;;;;4939674;28;20365;-75
2022/02/15 06:14:38;;;;;;;10.10;3.55;;;5.30;86.30;;;;;;4933641;28;20090;-77
2022/02/15 06:17:04;;;;;;;12.20;3.92;;;5.20;86.40;;;;;;4942918;28;20704;-79
2022/02/15 06:19:30;;;;;;;13.63;4.40;;;5.20;86.40;;;;;;4947458;28;20039;-75
2022/02/15 06:21:55;;;;;;;13.48;3.92;;;5.10;86.50;;;;;;4937079;28;20046;-75
2022/02/15 06:24:23;;;;;;;12.32;4.13;;;5.10;86.60;;;;;;4940892;28;20039;-76
2022/02/15 06:26:49;;;;;;;12.50;3.95;;;5.10;86.60;;;;;;4957943;28;20113;-78
2022/02/15 06:29:15;;;;;;;16.85;4.32;;;5.10;86.70;;;;;;4952657;28;20126;-76
2022/02/15 06:31:40;;;;;;;12.73;4.00;;;5.10;86.70;;;;;;4939066;28;20047;-77
2022/02/15 06:34:06;;;;;;;12.63;3.90;;;5.00;86.60;;;;;;4939788;28;20035;-74
2022/02/15 06:36:32;;;;;;;11.98;3.63;;;5.00;86.60;;;;;;4953073;28;20062;-80
2022/02/15 06:38:59;;;;;;;12.95;3.10;;;5.00;86.70;;;;;;4940994;28;20039;-75
2022/02/15 06:41:25;;;;;;;10.35;3.20;;;5.00;86.70;;;;;;4941074;28;20051;-76
2022/02/15 06:43:51;;;;;;;14.02;3.35;;;5.00;86.40;;;;;;4943690;28;20035;-73
2022/02/15 06:46:17;;;;;;;12.23;3.47;;;4.90;86.40;;;;;;4957646;28;20049;-76
2022/02/15 06:48:42;;;;;;;10.10;3.17;;;4.90;86.40;;;;;;4947764;28;20039;-76
2022/02/15 06:51:08;;;;;;;9.43;4.00;;;4.90;86.40;;;;;;4944526;28;20034;-74
2022/02/15 06:53:34;;;;;;;12.52;3.97;;;4.90;86.30;;;;;;4947733;28;20051;-75
2022/02/15 06:56:00;;;;;;;13.63;3.90;;;4.80;86.40;;;;;;4942007;28;20434;-74
2022/02/15 06:58:26;;;;;;;12.23;3.55;;;4.80;86.40;;;;;;4941665;28;20035;-74
2022/02/15 07:00:51;;;;;;;13.13;4.68;;;4.90;86.50;;;;;;4951400;28;21363;-77
2022/02/15 07:03:17;;;;;;;15.25;4.25;;;4.90;86.10;;;;;;4959641;28;20775;-74
2022/02/15 07:05:43;;;;;;;13.65;4.25;;;4.80;85.90;;;;;;4931872;28;20151;-76
2022/02/15 07:08:08;;;;;;;10.35;3.90;;;4.80;85.80;;;;;;4937424;28;20149;-76
2022/02/15 07:10:36;;;;;;;8.38;3.55;;;4.70;85.80;;;;;;4939289;28;20034;-74
2022/02/15 07:13:02;;;;;;;11.63;3.55;;;4.80;85.60;;;;;;4937382;28;20047;-74
2022/02/15 07:15:27;;;;;;;12.18;3.97;;;4.80;85.60;;;;;;4923343;28;20163;-76
2022/02/15 07:17:53;;;;;;;12.30;3.63;;;4.70;85.70;;;;;;4934502;28;20035;-77
2022/02/15 07:20:19;;;;;;;10.00;3.65;;;4.70;85.70;;;;;;4936009;28;20052;-75
2022/02/15 07:22:44;;;;;;;9.38;3.35;;;4.70;85.60;;;;;;4934524;28;20070;-74
2022/02/15 07:25:10;;;;;;;16.90;4.97;;;4.70;85.70;;;;;;4935950;28;20162;-74
2022/02/15 07:27:36;;;;;;;14.73;4.50;;;4.70;85.70;;;;;;4943377;28;20806;-73
2022/02/15 07:30:03;;;;;;;10.65;3.30;;;4.60;85.80;;;;;;4937647;28;20038;-73
2022/02/15 07:32:29;;;;;;;13.13;3.83;;;4.60;85.80;;;;;;4924884;28;20470;-73
2022/02/15 07:34:56;;;;;;;13.57;4.25;;;4.70;85.80;;;;;;4942069;28;20089;-73
2022/02/15 07:37:23;;;;;;;13.82;3.88;;;4.60;85.80;;;;;;4935874;28;20115;-73
2022/02/15 07:39:49;;;;;;;15.15;3.50;;;4.70;85.80;;;;;;4938859;28;20051;-74
2022/02/15 07:42:14;;;;;;;11.77;3.83;;;4.70;85.70;;;;;;4942274;28;20446;-76
2022/02/15 07:44:40;;;;;;;12.35;3.70;;;4.70;85.70;;;;;;4937467;28;20438;-69
2022/02/15 07:47:06;;;;;;;12.02;4.20;;;4.80;85.70;;;;;;4946177;28;20065;-68
2022/02/15 07:49:33;;;;;;;11.32;3.67;;;4.70;85.60;;;;;;4945329;28;20084;-69
2022/02/15 07:51:59;;;;;;;12.25;3.78;;;4.80;85.60;;;;;;4944840;28;20063;-69
2022/02/15 07:54:25;;;;;;;16.80;4.72;;;4.80;85.60;;;;;;4941130;28;20114;-70
2022/02/15 07:56:52;;;;;;;9.68;3.40;;;4.80;85.40;;;;;;4942990;28;20489;-70
2022/02/15 07:59:17;;;;;;;10.43;3.83;;;4.90;85.60;;;;;;4945023;28;20614;-69
2022/02/15 08:01:43;;;;;;;12.43;4.10;;;4.80;85.50;;;;;;4949299;28;20135;-72
2022/02/15 08:04:13;;;;;;;12.32;4.75;;;4.90;85.50;;;;;;4948748;28;20047;-68
2022/02/15 08:06:40;;;;;;;12.65;4.03;;;4.90;85.40;;;;;;4949375;28;20043;-71
2022/02/15 08:09:06;;;;;;;18.98;5.18;;;5.00;85.50;;;;;;4950568;28;20114;-69
2022/02/15 08:11:40;;;;;;;16.85;4.57;;;5.10;85.30;;;;;;4942641;28;20042;-72
2022/02/15 08:14:06;;;;;;;16.75;5.57;;;5.10;85.20;;;;;;4943739;28;20702;-72
2022/02/15 08:16:31;;;;;;;15.15;4.80;;;5.10;85.10;;;;;;4939462;28;20300;-68
2022/02/15 08:18:58;;;;;;;11.43;4.13;;;5.20;85.00;;;;;;4952330;28;20034;-69
2022/02/15 08:21:24;;;;;;;13.30;4.85;;;5.30;84.90;;;;;;4954874;28;20459;-69
2022/02/15 08:23:50;;;;;;;15.52;4.75;;;5.40;84.60;;;;;;4945664;28;20031;-68
2022/02/15 08:26:17;;;;;;;12.23;4.15;;;5.40;84.70;;;;;;4941157;28;20396;-68
2022/02/15 08:28:44;;;;;;;12.60;4.30;;;5.50;84.40;;;;;;4946673;28;20406;-73
2022/02/15 08:31:13;;;;;;;18.23;4.43;;;5.60;84.40;;;;;;4947571;28;20039;-70
2022/02/15 08:33:39;;;;;;;20.73;4.97;;;5.70;84.10;;;;;;4947322;28;20045;-69
2022/02/15 08:36:05;;;;;;;13.85;4.40;;;5.80;83.90;;;;;;4943636;28;20180;-68
2022/02/15 08:38:34;;;;;;;16.33;4.80;;;5.80;83.60;;;;;;4949369;28;20163;-69
2022/02/15 08:41:01;;;;;;;17.05;4.28;;;5.90;83.70;;;;;;4937987;28;20043;-71
2022/02/15 08:43:27;;;;;;;14.10;4.80;;;6.00;83.30;;;;;;4940029;28;20557;-71
2022/02/15 08:45:54;;;;;;;13.32;4.50;;;6.10;82.80;;;;;;4936243;28;20109;-70
2022/02/15 08:48:21;;;;;;;14.57;4.47;;;6.30;82.70;;;;;;4935806;28;20897;-70
2022/02/15 08:50:47;;;;;;;16.20;4.30;;;6.40;82.20;;;;;;4941744;28;20073;-70
2022/02/15 08:53:13;;;;;;;11.13;3.55;;;6.60;81.80;;;;;;4933879;28;20560;-70
2022/02/15 08:55:39;;;;;;;11.88;3.85;;;6.70;81.30;;;;;;4940777;28;20051;-71
2022/02/15 08:58:05;;;;;;;13.82;4.05;;;6.90;80.60;;;;;;4945875;28;20441;-68
2022/02/15 09:00:33;;;;;;;12.25;4.38;;;7.10;80.60;;;;;;4941221;28;20042;-71
2022/02/15 09:02:59;;;;;;;18.58;3.72;;;7.30;80.10;;;;;;4945624;28;20066;-71
2022/02/15 09:05:26;;;;;;;17.33;3.85;;;7.40;79.50;;;;;;4940797;28;20538;-69
2022/02/15 09:07:53;;;;;;;16.55;3.15;;;7.60;79.10;;;;;;4943184;28;20678;-72
2022/02/15 09:10:19;;;;;;;14.02;3.13;;;7.80;78.60;;;;;;4953565;28;20030;-69
2022/02/15 09:12:45;;;;;;;13.20;3.55;;;8.00;78.40;;;;;;4942180;28;20254;-71
2022/02/15 09:15:13;;;;;;;10.77;3.30;;;8.10;77.50;;;;;;4937592;28;20074;-69
2022/02/15 09:17:40;;;;;;;11.35;3.17;;;8.20;77.30;;;;;;4941970;28;20040;-69
2022/02/15 09:20:08;;;;;;;11.20;3.42;;;8.40;77.00;;;;;;4953165;28;20027;-71
2022/02/15 09:22:33;;;;;;;17.67;3.40;;;8.50;76.20;;;;;;4952958;28;20102;-68
2022/02/15 09:24:59;;;;;;;14.48;3.72;;;8.60;76.00;;;;;;4946882;28;20055;-69
2022/02/15 09:27:26;;;;;;;15.10;4.45;;;8.80;75.60;;;;;;4954763;28;20446;-71
2022/02/15 09:29:54;;;;;;;11.98;3.10;;;8.90;75.10;;;;;;4951937;28;20042;-70
2022/02/15 09:32:21;;;;;;;14.32;3.60;;;9.00;74.90;;;;;;4954098;28;20545;-69
2022/02/15 09:34:47;;;;;;;14.23;3.47;;;9.00;74.70;;;;;;4943951;28;20035;-71
2022/02/15 09:37:13;;;;;;;19.77;3.95;;;9.10;74.80;;;;;;4953882;28;20062;-71
2022/02/15 09:39:39;;;;;;;11.40;3.45;;;9.20;73.90;;;;;;4941072;28;20377;-70
2022/02/15 09:42:05;;;;;;;14.20;3.55;;;9.10;74.30;;;;;;4939701;28;20037;-69
2022/02/15 09:44:31;;;;;;;15.38;3.38;;;9.30;74.10;;;;;;4945908;28;20031;-70
2022/02/15 09:46:58;;;;;;;14.50;3.88;;;9.40;74.50;;;;;;4942791;28;20038;-71
2022/02/15 09:52:11;;;;;;;11.02;3.10;;;9.60;73.00;;;;;;4950642;28;20386;-70
2022/02/15 09:54:38;;;;;;;22.95;5.80;;;9.70;72.30;;;;;;4926231;28;20050;-70
2022/02/15 09:57:04;;;;;;;14.38;3.47;;;9.90;71.60;;;;;;4943535;28;20039;-68
2022/02/15 09:59:30;;;;;;;13.27;3.25;;;9.90;71.50;;;;;;4940698;28;20046;-70
2022/02/15 10:01:56;;;;;;;17.92;4.93;;;10.00;71.50;;;;;;4943632;28;20066;-68
2022/02/15 10:04:33;;;;;;;16.73;3.05;;;9.90;70.30;;;;;;4942761;28;20138;-69
2022/02/15 10:07:00;;;;;;;16.50;3.90;;;10.00;70.90;;;;;;4929406;28;20422;-70
2022/02/15 10:09:27;;;;;;;13.60;3.78;;;10.20;70.70;;;;;;4942313;28;20153;-68
2022/02/15 10:12:02;;;;;;;14.25;3.95;;;10.10;69.70;;;;;;4944336;28;20597;-68
2022/02/15 10:14:28;;;;;;;17.65;4.03;;;10.20;69.40;;;;;;4944409;28;20027;-71
2022/02/15 10:16:54;;;;;;;9.20;2.75;;;10.10;70.40;;;;;;4945549;28;20521;-70
2022/02/15 10:19:28;;;;;;;15.07;4.20;;;10.10;69.40;;;;;;4942550;28;20039;-70
2022/02/15 10:21:55;;;;;;;14.10;3.58;;;10.10;69.70;;;;;;4943085;28;20042;-73
2022/02/15 10:24:25;;;;;;;11.50;2.85;;;10.10;69.20;;;;;;4942571;28;20157;-70
2022/02/15 10:26:57;;;;;;;10.75;3.17;;;10.00;68.90;;;;;;4943591;28;20106;-69
2022/02/15 10:29:25;;;;;;;9.82;2.60;;;10.20;69.00;;;;;;4941170;28;20542;-69
2022/02/15 10:32:05;;;;;;;7.82;2.55;;;10.40;68.50;;;;;;4941213;28;20035;-68
2022/02/15 10:34:32;;;;;;;9.07;2.50;;;10.60;68.10;;;;;;4947161;28;20290;-69
2022/02/15 10:37:04;;;;;;;9.63;2.65;;;10.70;67.90;;;;;;4941276;28;20349;-69
2022/02/15 10:39:45;;;;;;;15.05;2.88;;;11.00;67.30;;;;;;4949786;28;20034;-70
2022/02/15 10:42:21;;;;;;;12.80;3.15;;;11.10;66.20;;;;;;4943591;28;20158;-72
2022/02/15 10:44:50;;;;;;;15.13;2.97;;;11.10;64.80;;;;;;4929455;28;20039;-70
2022/02/15 10:47:16;;;;;;;12.73;3.03;;;11.10;65.60;;;;;;4953408;28;20479;-71
2022/02/15 10:49:42;;;;;;;15.43;2.90;;;10.90;65.30;;;;;;4939047;28;20286;-72
2022/02/15 10:52:10;;;;;;;13.68;2.80;;;11.00;65.60;;;;;;4941138;28;20045;-74
2022/02/15 10:54:37;;;;;;;12.48;3.05;;;11.20;65.40;;;;;;4943675;28;20030;-73
2022/02/15 10:57:03;;;;;;;11.73;2.60;;;11.20;63.90;;;;;;4945564;28;20166;-71
2022/02/15 10:59:33;;;;;;;11.68;2.75;;;11.10;64.70;;;;;;4951332;28;20076;-72
2022/02/15 11:02:03;;;;;;;9.65;3.10;;;11.30;65.00;;;;;;4945967;28;20090;-78
2022/02/15 11:04:33;;;;;;;13.98;3.50;;;11.60;65.40;;;;;;4957845;28;20040;-76
2022/02/15 11:07:06;;;;;;;12.82;2.97;;;11.90;63.60;;;;;;4949275;28;20047;-77
2022/02/15 11:09:51;;;;;;;10.00;2.30;;;11.70;63.80;;;;;;4929228;28;21226;-76
2022/02/15 11:12:28;;;;;;;11.75;3.00;;;11.50;64.10;;;;;;4941209;28;20062;-78
2022/02/15 11:15:00;;;;;;;11.10;2.63;;;11.10;64.80;;;;;;4942656;28;20035;-80
2022/02/15 11:17:26;;;;;;;10.25;3.13;;;11.20;65.00;;;;;;4942294;28;20035;-83
2022/02/15 11:20:01;;;;;;;9.07;2.80;;;11.30;65.50;;;;;;4939626;28;20070;-79
2022/02/15 11:22:27;;;;;;;9.82;2.97;;;11.40;65.90;;;;;;4944179;28;20499;-76
2022/02/15 11:24:53;;;;;;;6.90;2.10;;;11.50;65.50;;;;;;4948583;28;20483;-76
2022/02/15 11:27:21;;;;;;;8.70;2.63;;;11.30;64.70;;;;;;4937869;28;20137;-76
2022/02/15 11:29:56;;;;;;;11.73;2.65;;;11.30;65.40;;;;;;4935873;28;20274;-74
2022/02/15 11:32:24;;;;;;;11.95;3.22;;;11.40;65.80;;;;;;4931425;28;20066;-75
2022/02/15 11:34:50;;;;;;;12.10;3.65;;;11.40;65.70;;;;;;4932696;28;20054;-76
2022/02/15 11:37:19;;;;;;;12.65;2.72;;;11.40;66.10;;;;;;4933162;28;20122;-75
2022/02/15 11:39:56;;;;;;;10.43;3.13;;;11.40;65.40;;;;;;4931731;28;20042;-77
2022/02/15 11:42:22;;;;;;;15.20;3.42;;;11.50;65.60;;;;;;4933032;28;20044;-76
2022/02/15 11:44:48;;;;;;;10.48;2.45;;;11.80;65.40;;;;;;4931444;28;20031;-75
2022/02/15 11:47:20;;;;;;;12.82;2.85;;;12.00;64.00;;;;;;4945343;28;20039;-75
2022/02/15 11:49:57;;;;;;;11.95;3.10;;;12.20;63.90;;;;;;4931909;28;20379;-75
2022/02/15 11:52:25;;;;;;;11.45;2.70;;;12.10;63.60;;;;;;4933954;28;20047;-75
2022/02/15 11:54:50;;;;;;;11.93;2.25;;;12.10;63.50;;;;;;4939799;28;20123;-76
2022/02/15 11:57:17;;;;;;;11.75;2.78;;;12.00;64.10;;;;;;4935080;28;20759;-73
2022/02/15 11:59:51;;;;;;;9.15;2.45;;;12.00;64.60;;;;;;4931052;28;20576;-75
2022/02/15 12:02:17;;;;;;;11.52;2.47;;;11.80;63.70;;;;;;4932072;28;20043;-74
2022/02/15 12:04:56;;;;;;;9.38;2.80;;;11.80;65.30;;;;;;4932819;28;20896;-73
2022/02/15 12:07:29;;;;;;;12.40;3.08;;;11.90;64.60;;;;;;4931233;28;20043;-78
2022/02/15 12:09:57;;;;;;;9.35;2.60;;;11.80;64.60;;;;;;4936259;28;20043;-76
2022/02/15 12:12:33;;;;;;;12.30;2.60;;;11.70;65.10;;;;;;4939067;28;20581;-76
2022/02/15 12:15:00;;;;;;;12.05;2.78;;;11.60;65.30;;;;;;4941919;28;20142;-73
2022/02/15 12:17:27;;;;;;;11.75;2.85;;;11.60;65.40;;;;;;4940564;28;20039;-82
2022/02/15 12:19:56;;;;;;;11.90;2.80;;;11.50;66.20;;;;;;4941314;28;20035;-78
2022/02/15 12:22:23;;;;;;;11.88;2.10;;;11.40;66.70;;;;;;4935384;28;20047;-81
2022/02/15 12:24:56;;;;;;;13.60;3.15;;;11.40;66.70;;;;;;4940704;28;20103;-77
2022/02/15 12:27:25;;;;;;;15.23;2.70;;;11.40;66.90;;;;;;4941654;28;20089;-82
2022/02/15 12:29:52;;;;;;;9.07;2.45;;;11.30;67.20;;;;;;4941719;28;20239;-76
2022/02/15 12:32:23;;;;;;;11.35;3.20;;;11.20;67.70;;;;;;4926097;28;20158;-81
2022/02/15 12:34:50;;;;;;;10.00;3.00;;;11.10;67.70;;;;;;4937549;28;20043;-80
2022/02/15 12:37:23;;;;;;;9.88;2.55;;;11.10;68.50;;;;;;4939470;28;20034;-78
2022/02/15 12:39:55;;;;;;;20.60;3.10;;;11.10;68.30;;;;;;4941303;28;21012;-77
2022/02/15 12:42:23;;;;;;;12.38;2.75;;;11.10;68.50;;;;;;4942303;28;20039;-75
2022/02/15 12:44:59;;;;;;;13.48;2.60;;;11.20;68.80;;;;;;4948022;28;20146;-76
2022/02/15 12:47:29;;;;;;;10.63;3.25;;;11.20;68.70;;;;;;4943036;28;20471;-72
2022/02/15 12:49:57;;;;;;;12.13;3.08;;;11.20;68.90;;;;;;4940119;28;20557;-76
2022/02/15 12:52:24;;;;;;;13.05;2.78;;;11.10;69.60;;;;;;4942319;28;20132;-73
2022/02/15 12:54:55;;;;;;;10.27;3.33;;;11.10;69.20;;;;;;4942592;28;20039;-75